Bowler, Wisconsin
Current Conditions -  °F | °C
As of 2:55 PM on Thursday 20 Nov 2014 (Local Time) from KCLI Reporting Station
Overcast Overcast  
Wind Chill:   Ceiling: 4400
Heat Index: 18°   Visibility: 10mi
Dew Point:   Wind: 12mph
Humidity: 49%   Direction: 300°WNW
Pressure: 30.02"   Gusts: 20mph
Location:  44.86°N, 88.98°W
Report Text: KCLI 202055Z AUTO 30010G17KT 10SM SCT039 OVC044 M08/M17 A3002 RMK AO2
Loading
Personal Weather Stations






























Interactive Weather Map New forecast layout! Learn more

10-Day Weather Forecast

Advertisements
Track Severe Weather on mobile